Time;durP1;ratioP1;P1;durP2;ratioP2;P2;SDS_P1;SDS_P2;PMS_P1;PMS_P2;Temp;Humidity;BMP_temperature;BMP_pressure;BME280_temperature;BME280_humidity;BME280_pressure;Samples;Min_cycle;Max_cycle;Signal;HPM_P1;HPM_P2
2022/12/08 00:01:28;;;;;;;13.13;7.40;;;1.90;99.90;;;;;;5017394;28;20456;-71
2022/12/08 00:03:56;;;;;;;10.33;7.00;;;1.80;99.90;;;;;;5017160;28;20918;-70
2022/12/08 00:09:22;;;;;;;9.47;5.80;;;1.80;99.90;;;;;;5021000;28;20790;-72
2022/12/08 00:11:51;;;;;;;10.43;6.70;;;1.80;99.90;;;;;;5021330;28;20437;-69
2022/12/08 00:14:18;;;;;;;9.97;5.80;;;1.80;99.90;;;;;;5021049;28;20452;-70
2022/12/08 00:16:45;;;;;;;9.50;6.60;;;1.80;99.90;;;;;;5021264;28;20842;-71
2022/12/08 00:19:12;;;;;;;14.40;7.20;;;1.80;99.90;;;;;;5020845;28;20544;-70
2022/12/08 00:21:39;;;;;;;10.10;7.20;;;1.80;99.90;;;;;;5020696;28;20448;-70
2022/12/08 00:24:07;;;;;;;10.63;6.63;;;1.90;99.90;;;;;;5020801;28;20796;-70
2022/12/08 00:26:34;;;;;;;12.10;7.60;;;1.90;99.90;;;;;;5021046;28;20958;-71
2022/12/08 00:29:02;;;;;;;10.20;6.83;;;1.90;99.90;;;;;;5021390;28;20547;-70
2022/12/08 00:31:29;;;;;;;12.17;6.90;;;1.90;99.90;;;;;;5021216;28;20532;-70
2022/12/08 00:33:56;;;;;;;12.43;7.30;;;1.90;99.90;;;;;;5020933;28;20543;-71
2022/12/08 00:36:22;;;;;;;12.33;6.60;;;1.90;99.90;;;;;;5020806;28;20528;-71
2022/12/08 00:38:49;;;;;;;10.00;6.70;;;1.90;99.90;;;;;;5020410;28;20452;-70
2022/12/08 00:42:10;;;;;;;13.57;7.70;;;1.90;99.90;;;;;;5020899;28;20631;-71
2022/12/08 00:44:07;;;;;;;11.90;7.80;;;1.90;99.90;;;;;;5020965;28;20463;-71
2022/12/08 00:46:34;;;;;;;12.13;8.00;;;2.00;99.90;;;;;;5020615;28;21033;-71
2022/12/08 00:49:01;;;;;;;11.57;7.37;;;2.00;99.90;;;;;;5021215;28;20484;-71
2022/12/08 00:51:27;;;;;;;15.80;7.20;;;2.00;99.90;;;;;;5022466;28;20457;-70
2022/12/08 00:53:54;;;;;;;16.43;7.73;;;2.00;99.90;;;;;;5021326;28;20540;-71
2022/12/08 00:56:21;;;;;;;14.00;8.70;;;2.00;99.90;;;;;;5020576;28;20483;-69
2022/12/08 00:58:48;;;;;;;15.43;8.40;;;2.10;99.90;;;;;;5020299;28;20973;-71
2022/12/08 01:01:16;;;;;;;12.17;8.13;;;2.10;99.90;;;;;;5020451;28;20496;-70
2022/12/08 01:03:44;;;;;;;10.13;7.60;;;2.10;99.90;;;;;;5020813;28;20539;-67
2022/12/08 01:06:11;;;;;;;12.07;7.80;;;2.10;99.90;;;;;;5021108;28;20555;-70
2022/12/08 01:08:39;;;;;;;10.40;6.90;;;2.00;99.90;;;;;;5020799;28;20584;-70
2022/12/08 01:11:07;;;;;;;9.63;8.07;;;2.00;99.90;;;;;;5020680;28;20551;-68
2022/12/08 01:13:34;;;;;;;12.23;7.67;;;2.00;99.90;;;;;;5020392;28;20801;-68
2022/12/08 01:16:01;;;;;;;10.10;7.70;;;2.00;99.90;;;;;;5020323;28;20555;-69
2022/12/08 01:18:30;;;;;;;14.20;8.20;;;2.10;99.90;;;;;;5020178;28;20533;-69
2022/12/08 01:21:02;;;;;;;17.13;7.80;;;2.10;99.90;;;;;;5020338;28;20552;-70
2022/12/08 01:23:29;;;;;;;12.13;7.47;;;2.10;99.90;;;;;;5020598;28;20532;-68
2022/12/08 01:25:56;;;;;;;17.20;8.70;;;2.10;99.90;;;;;;5020076;28;20472;-69
2022/12/08 01:28:23;;;;;;;12.07;8.07;;;2.00;99.90;;;;;;5019683;28;21071;-70
2022/12/08 01:30:49;;;;;;;13.33;7.90;;;2.00;99.90;;;;;;5019998;28;20524;-71
2022/12/08 01:33:16;;;;;;;14.97;8.57;;;2.00;99.90;;;;;;5019817;28;20556;-70
2022/12/08 01:35:44;;;;;;;14.47;8.20;;;2.10;99.90;;;;;;5019244;28;21024;-71
2022/12/08 01:38:11;;;;;;;11.13;7.90;;;2.10;99.90;;;;;;5019810;28;20861;-70
2022/12/08 01:40:38;;;;;;;15.73;9.60;;;2.20;99.90;;;;;;5019964;28;20461;-71
2022/12/08 01:43:05;;;;;;;17.73;8.73;;;2.20;99.90;;;;;;5019193;28;20492;-71
2022/12/08 01:45:32;;;;;;;14.13;9.67;;;2.20;99.90;;;;;;5019373;28;20958;-70
2022/12/08 01:48:04;;;;;;;15.43;7.90;;;2.30;99.90;;;;;;5019664;28;20461;-70
2022/12/08 01:50:32;;;;;;;14.60;8.70;;;2.30;99.90;;;;;;5019255;28;20497;-69
2022/12/08 01:53:03;;;;;;;12.77;8.93;;;2.30;99.90;;;;;;5019939;28;20528;-70
2022/12/08 01:55:35;;;;;;;13.37;9.00;;;2.20;99.90;;;;;;5019836;28;20842;-71
2022/12/08 01:58:10;;;;;;;13.10;7.67;;;2.20;99.90;;;;;;5020951;28;20433;-71
2022/12/08 02:00:37;;;;;;;12.93;9.07;;;2.20;99.90;;;;;;5020375;28;20487;-71
2022/12/08 02:03:08;;;;;;;13.47;8.40;;;2.20;99.90;;;;;;5020732;28;20559;-71
2022/12/08 02:05:38;;;;;;;12.63;8.73;;;2.20;99.90;;;;;;5020730;28;20524;-71
2022/12/08 02:08:10;;;;;;;14.03;8.13;;;2.20;99.90;;;;;;5020222;28;20575;-71
2022/12/08 02:10:39;;;;;;;11.67;8.40;;;2.20;99.90;;;;;;5020588;28;20477;-71
2022/12/08 02:13:08;;;;;;;15.23;9.00;;;2.20;99.90;;;;;;5022207;28;20559;-70
2022/12/08 02:15:41;;;;;;;13.00;9.27;;;2.20;99.90;;;;;;5021337;28;20536;-71
2022/12/08 02:18:21;;;;;;;15.67;9.87;;;2.20;99.90;;;;;;5019981;28;20509;-71
2022/12/08 02:20:56;;;;;;;18.70;9.60;;;2.10;99.90;;;;;;5020564;28;20437;-70
2022/12/08 02:23:34;;;;;;;10.53;7.93;;;2.10;99.90;;;;;;5021115;28;20627;-70
2022/12/08 02:26:40;;;;;;;14.00;9.03;;;2.00;99.90;;;;;;5020684;28;20528;-70
2022/12/08 02:29:39;;;;;;;12.50;8.70;;;2.00;99.90;;;;;;5019411;28;20572;-70
2022/12/08 02:32:25;;;;;;;13.43;8.50;;;1.90;99.90;;;;;;5019668;28;20464;-69
2022/12/08 02:34:58;;;;;;;14.43;9.00;;;1.90;99.90;;;;;;5020040;28;20548;-68
2022/12/08 02:37:30;;;;;;;13.50;9.60;;;1.90;99.90;;;;;;5022309;28;20504;-70
2022/12/08 02:40:03;;;;;;;12.80;8.77;;;1.90;99.90;;;;;;5018797;28;20949;-69
2022/12/08 02:42:37;;;;;;;13.20;8.60;;;1.80;99.90;;;;;;5018359;28;20561;-69
2022/12/08 02:45:11;;;;;;;14.93;8.07;;;1.80;99.90;;;;;;5018470;28;20516;-68
2022/12/08 02:47:39;;;;;;;12.20;8.50;;;1.80;99.90;;;;;;5017966;28;20515;-68
2022/12/08 02:50:09;;;;;;;11.50;8.07;;;1.70;99.90;;;;;;5018762;28;20488;-69
2022/12/08 02:52:44;;;;;;;13.13;8.20;;;1.70;99.90;;;;;;5018515;28;20520;-69
2022/12/08 02:55:18;;;;;;;10.30;7.83;;;1.70;99.90;;;;;;5018213;28;20523;-69
2022/12/08 02:57:56;;;;;;;12.23;7.70;;;1.70;99.90;;;;;;5018884;28;20524;-70
2022/12/08 03:00:27;;;;;;;10.77;7.23;;;1.70;99.90;;;;;;5019809;28;20536;-70
2022/12/08 03:03:08;;;;;;;10.83;7.40;;;1.70;99.90;;;;;;5019179;28;20942;-70
2022/12/08 03:05:51;;;;;;;13.63;8.00;;;1.70;99.90;;;;;;5019445;28;20536;-69
2022/12/08 03:08:27;;;;;;;13.10;8.63;;;1.70;99.90;;;;;;5019408;28;20995;-69
2022/12/08 03:11:01;;;;;;;11.97;7.97;;;1.70;99.90;;;;;;5018915;28;20604;-69
2022/12/08 03:13:33;;;;;;;9.90;7.20;;;1.70;99.90;;;;;;5019264;28;20536;-68
2022/12/08 03:16:01;;;;;;;13.40;6.17;;;1.80;99.90;;;;;;5020226;28;20528;-69
2022/12/08 03:18:32;;;;;;;10.07;6.57;;;1.80;99.90;;;;;;5020675;28;20544;-69
2022/12/08 03:21:02;;;;;;;11.30;7.30;;;1.80;99.90;;;;;;5019461;28;20507;-68
2022/12/08 03:23:31;;;;;;;9.43;6.40;;;1.80;99.90;;;;;;5021195;28;20829;-70
2022/12/08 03:26:03;;;;;;;9.27;6.70;;;1.80;99.90;;;;;;5020509;28;20537;-69
2022/12/08 03:28:31;;;;;;;11.23;6.60;;;1.90;99.90;;;;;;5020741;28;20552;-69
2022/12/08 03:31:02;;;;;;;9.07;6.17;;;1.90;99.90;;;;;;5020461;28;20516;-69
2022/12/08 03:33:33;;;;;;;11.50;6.60;;;1.90;99.90;;;;;;5020207;28;20445;-69
2022/12/08 03:36:04;;;;;;;9.10;6.67;;;1.90;99.90;;;;;;5020192;28;20467;-68
2022/12/08 03:38:38;;;;;;;8.60;6.27;;;1.90;99.90;;;;;;5019645;28;20484;-69
2022/12/08 03:41:20;;;;;;;9.37;5.93;;;1.90;99.90;;;;;;5018123;28;20445;-71
2022/12/08 03:43:47;;;;;;;8.33;6.10;;;1.80;99.90;;;;;;5019240;28;20607;-68
2022/12/08 03:46:15;;;;;;;10.13;6.17;;;1.80;99.90;;;;;;5019282;28;20489;-70
2022/12/08 03:48:42;;;;;;;11.20;7.10;;;1.80;99.90;;;;;;5018876;28;20480;-70
2022/12/08 03:51:10;;;;;;;11.13;6.40;;;1.80;99.90;;;;;;5019033;28;20537;-68
2022/12/08 03:53:37;;;;;;;9.70;6.47;;;1.80;99.90;;;;;;5018804;28;20461;-68
2022/12/08 03:56:05;;;;;;;9.30;6.40;;;1.70;99.90;;;;;;5018239;28;20547;-69
2022/12/08 03:58:32;;;;;;;10.70;7.07;;;1.70;99.90;;;;;;5018757;28;20525;-69
2022/12/08 04:00:58;;;;;;;10.70;6.80;;;1.80;99.90;;;;;;5018369;28;20460;-70
2022/12/08 04:03:25;;;;;;;12.87;7.73;;;1.80;99.90;;;;;;5017981;28;20467;-69
2022/12/08 04:05:52;;;;;;;12.53;8.50;;;1.80;99.90;;;;;;5019328;28;20559;-69
2022/12/08 04:08:21;;;;;;;14.30;8.43;;;1.80;99.90;;;;;;5017831;28;20816;-69
2022/12/08 04:10:47;;;;;;;12.40;8.70;;;1.80;99.90;;;;;;5017874;28;20945;-69
2022/12/08 04:13:14;;;;;;;16.70;9.53;;;1.80;99.90;;;;;;5016707;28;20973;-70
2022/12/08 04:15:45;;;;;;;11.80;9.27;;;1.80;99.90;;;;;;5017308;28;20984;-68
2022/12/08 04:18:12;;;;;;;13.53;8.40;;;1.80;99.90;;;;;;5017061;28;20540;-70
2022/12/08 04:20:40;;;;;;;15.33;9.03;;;1.80;99.90;;;;;;5016946;28;20460;-68
2022/12/08 04:23:07;;;;;;;13.60;9.47;;;1.80;99.90;;;;;;5017493;28;20476;-70
2022/12/08 04:25:35;;;;;;;14.50;9.00;;;1.80;99.90;;;;;;5016244;28;20523;-68
2022/12/08 04:28:03;;;;;;;14.40;9.10;;;1.90;99.90;;;;;;5017033;28;20457;-70
2022/12/08 04:30:30;;;;;;;13.53;9.13;;;1.90;99.90;;;;;;5017532;28;20520;-69
2022/12/08 04:32:57;;;;;;;14.90;8.93;;;1.90;99.90;;;;;;5019015;28;20463;-69
2022/12/08 04:35:24;;;;;;;15.40;9.57;;;1.90;99.90;;;;;;5017416;28;20888;-68
2022/12/08 04:37:51;;;;;;;17.87;11.27;;;1.90;99.90;;;;;;5018258;28;20550;-73
2022/12/08 04:40:18;;;;;;;16.20;10.83;;;1.90;99.90;;;;;;5017456;28;20551;-71
2022/12/08 04:42:46;;;;;;;16.40;9.87;;;1.90;99.90;;;;;;5018036;28;20468;-69
2022/12/08 04:45:13;;;;;;;20.00;10.80;;;1.80;99.90;;;;;;5020816;28;20960;-69
2022/12/08 04:47:40;;;;;;;14.17;10.00;;;1.70;99.90;;;;;;5020021;28;20572;-69
2022/12/08 04:50:08;;;;;;;14.67;9.47;;;1.80;99.90;;;;;;5022008;28;20568;-69
2022/12/08 04:52:35;;;;;;;16.60;9.90;;;1.80;99.90;;;;;;5022943;28;20532;-69
2022/12/08 04:55:02;;;;;;;15.60;10.90;;;1.80;99.90;;;;;;5022808;28;20524;-70
2022/12/08 04:57:29;;;;;;;18.40;10.83;;;1.80;99.90;;;;;;5023739;28;20539;-70
2022/12/08 04:59:57;;;;;;;18.20;11.30;;;1.80;99.90;;;;;;5024064;28;20838;-70
2022/12/08 05:02:24;;;;;;;19.47;11.50;;;1.80;99.90;;;;;;5024229;28;21001;-69
2022/12/08 05:04:50;;;;;;;17.27;10.30;;;1.80;99.90;;;;;;5025062;28;20528;-69
2022/12/08 05:07:17;;;;;;;16.67;11.07;;;1.90;99.90;;;;;;5025352;28;20453;-70
2022/12/08 05:09:44;;;;;;;18.30;10.37;;;1.90;99.90;;;;;;5024377;28;20520;-69
2022/12/08 05:12:11;;;;;;;19.43;12.60;;;1.90;99.90;;;;;;5020312;28;20465;-69
2022/12/08 05:14:38;;;;;;;16.30;11.30;;;2.00;99.90;;;;;;5020637;28;20548;-70
2022/12/08 05:17:06;;;;;;;18.57;11.37;;;2.00;99.90;;;;;;5020324;28;20520;-69
2022/12/08 05:19:33;;;;;;;17.20;11.47;;;2.00;99.90;;;;;;5020270;28;20467;-69
2022/12/08 05:22:00;;;;;;;17.83;11.43;;;2.00;99.90;;;;;;5020322;28;20858;-69
2022/12/08 05:24:27;;;;;;;20.57;11.77;;;2.00;99.90;;;;;;5020777;28;20485;-70
2022/12/08 05:26:54;;;;;;;19.63;12.63;;;2.00;99.90;;;;;;5021183;28;20461;-68
2022/12/08 05:29:20;;;;;;;22.83;11.20;;;2.00;99.90;;;;;;5020449;28;20476;-69
2022/12/08 05:31:47;;;;;;;19.30;12.37;;;2.10;99.90;;;;;;5021577;28;20461;-69
2022/12/08 05:34:16;;;;;;;21.30;11.97;;;2.10;99.90;;;;;;5020611;28;20476;-69
2022/12/08 05:36:42;;;;;;;17.70;11.97;;;2.10;99.90;;;;;;5021844;28;20460;-71
2022/12/08 05:39:12;;;;;;;22.43;12.40;;;2.10;99.90;;;;;;5022329;28;20550;-67
2022/12/08 05:41:39;;;;;;;20.67;13.03;;;2.10;99.90;;;;;;5021619;28;20547;-69
2022/12/08 05:44:06;;;;;;;19.00;12.97;;;2.10;99.90;;;;;;5021202;28;20532;-69
2022/12/08 05:46:33;;;;;;;22.13;13.27;;;2.20;99.90;;;;;;5021303;28;20516;-69
2022/12/08 05:49:01;;;;;;;17.00;11.63;;;2.20;99.90;;;;;;5021196;28;20485;-68
2022/12/08 05:51:29;;;;;;;18.07;12.70;;;2.20;99.90;;;;;;5021396;28;20545;-68
2022/12/08 05:53:56;;;;;;;20.80;12.90;;;2.20;99.90;;;;;;5021888;28;20552;-70
2022/12/08 05:56:23;;;;;;;21.07;13.13;;;2.20;99.90;;;;;;5020579;28;20556;-69
2022/12/08 05:58:51;;;;;;;20.77;13.90;;;2.10;99.90;;;;;;5021032;28;20453;-70
2022/12/08 06:01:23;;;;;;;24.90;14.53;;;2.20;99.90;;;;;;5021393;28;20587;-70
2022/12/08 06:03:49;;;;;;;23.97;14.60;;;2.20;99.90;;;;;;5019895;28;20457;-69
2022/12/08 06:06:17;;;;;;;23.80;14.20;;;2.20;99.90;;;;;;5020322;28;20481;-69
2022/12/08 06:08:45;;;;;;;26.67;15.53;;;2.20;99.90;;;;;;5020520;28;20567;-70
2022/12/08 06:11:19;;;;;;;25.80;14.27;;;2.30;99.90;;;;;;5020518;28;20762;-69
2022/12/08 06:13:45;;;;;;;24.27;15.53;;;2.30;99.90;;;;;;5020256;28;20782;-70
2022/12/08 06:16:12;;;;;;;28.13;15.20;;;2.30;99.90;;;;;;5019784;28;20528;-69
2022/12/08 06:18:39;;;;;;;27.10;16.57;;;2.30;99.90;;;;;;5020572;28;20467;-68
2022/12/08 06:21:08;;;;;;;28.53;15.03;;;2.30;99.90;;;;;;5018327;28;20461;-69
2022/12/08 06:23:35;;;;;;;25.93;16.17;;;2.40;99.90;;;;;;5016635;28;20460;-69
2022/12/08 06:26:05;;;;;;;20.57;12.70;;;2.40;99.90;;;;;;5016716;28;20560;-68
2022/12/08 06:28:33;;;;;;;30.50;16.50;;;2.40;99.90;;;;;;5016774;28;20451;-69
2022/12/08 06:31:00;;;;;;;23.23;13.47;;;2.40;99.90;;;;;;5016214;28;20492;-68
2022/12/08 06:33:27;;;;;;;29.33;14.90;;;2.40;99.90;;;;;;5016273;28;20468;-69
2022/12/08 06:35:53;;;;;;;25.27;13.97;;;2.50;99.90;;;;;;5016951;28;20456;-69
2022/12/08 06:38:20;;;;;;;32.27;17.00;;;2.50;99.90;;;;;;5016740;28;20805;-70
2022/12/08 06:40:54;;;;;;;25.40;15.00;;;2.50;99.90;;;;;;5016549;28;20457;-70
2022/12/08 06:43:22;;;;;;;24.80;15.50;;;2.60;99.90;;;;;;5016572;28;20445;-69
2022/12/08 06:45:50;;;;;;;25.40;14.30;;;2.60;99.90;;;;;;5016156;28;20485;-69
2022/12/08 06:48:17;;;;;;;25.57;15.03;;;2.60;99.90;;;;;;5016899;28;20457;-68
2022/12/08 06:50:44;;;;;;;27.23;15.27;;;2.60;99.90;;;;;;5016009;28;20555;-69
2022/12/08 06:53:12;;;;;;;27.57;14.60;;;2.60;99.90;;;;;;5016858;28;20463;-69
2022/12/08 06:55:43;;;;;;;23.30;14.50;;;2.60;99.90;;;;;;5016408;28;20556;-69
2022/12/08 06:58:10;;;;;;;22.00;14.67;;;2.60;99.90;;;;;;5017503;28;20441;-69
2022/12/08 07:00:38;;;;;;;23.43;13.63;;;2.60;99.90;;;;;;5017755;28;20846;-68
2022/12/08 07:03:07;;;;;;;26.67;14.07;;;2.70;99.90;;;;;;5016257;28;20549;-69
2022/12/08 07:05:34;;;;;;;25.97;14.80;;;2.70;99.90;;;;;;5016097;28;20549;-69
2022/12/08 07:08:01;;;;;;;23.53;15.13;;;2.70;99.90;;;;;;5015723;28;20457;-68
2022/12/08 07:10:28;;;;;;;22.30;13.70;;;2.70;99.90;;;;;;5015697;28;20488;-68
2022/12/08 07:12:54;;;;;;;21.40;13.30;;;2.70;99.90;;;;;;5015809;28;20457;-69
2022/12/08 07:15:21;;;;;;;26.27;14.00;;;2.70;99.90;;;;;;5015809;28;20860;-69
2022/12/08 07:17:50;;;;;;;27.63;15.30;;;2.70;99.90;;;;;;5015596;28;20552;-70
2022/12/08 07:20:17;;;;;;;21.97;14.03;;;2.70;99.90;;;;;;5015911;28;20468;-66
2022/12/08 07:22:49;;;;;;;24.83;14.33;;;2.70;99.90;;;;;;5015272;28;20508;-69
2022/12/08 07:25:16;;;;;;;23.50;14.73;;;2.70;99.90;;;;;;5015840;28;20459;-70
2022/12/08 07:27:43;;;;;;;22.60;15.70;;;2.70;99.90;;;;;;5015562;28;20546;-69
2022/12/08 07:30:10;;;;;;;31.63;15.20;;;2.70;99.90;;;;;;5015738;28;20573;-70
2022/12/08 07:32:37;;;;;;;26.07;14.87;;;2.70;99.90;;;;;;5015766;28;20548;-69
2022/12/08 07:35:07;;;;;;;24.17;14.97;;;2.70;99.90;;;;;;5015171;28;20472;-70
2022/12/08 07:37:36;;;;;;;24.10;13.27;;;2.80;99.90;;;;;;5015849;28;20781;-70
2022/12/08 07:40:03;;;;;;;26.73;15.17;;;2.80;99.90;;;;;;5015236;28;20467;-68
2022/12/08 07:42:30;;;;;;;21.40;13.10;;;2.80;99.90;;;;;;5015529;28;20540;-69
2022/12/08 07:44:57;;;;;;;20.80;13.50;;;2.80;99.90;;;;;;5016786;28;20571;-70
2022/12/08 07:47:24;;;;;;;22.20;13.93;;;2.80;99.90;;;;;;5017122;28;20575;-68
2022/12/08 07:49:50;;;;;;;23.67;14.60;;;2.80;99.90;;;;;;5015792;28;20485;-69
2022/12/08 07:52:19;;;;;;;22.87;14.10;;;2.90;99.90;;;;;;5016186;28;20563;-68
2022/12/08 07:54:46;;;;;;;26.83;15.93;;;2.80;99.90;;;;;;5015998;28;20468;-70
2022/12/08 07:57:12;;;;;;;27.70;14.97;;;2.90;99.90;;;;;;5016567;28;20924;-70
2022/12/08 07:59:39;;;;;;;22.10;13.70;;;2.90;99.90;;;;;;5016868;28;20453;-70
2022/12/08 08:02:06;;;;;;;21.13;13.90;;;3.00;99.90;;;;;;5016444;28;20540;-70
2022/12/08 08:04:33;;;;;;;26.43;14.23;;;3.00;99.90;;;;;;5015300;28;20524;-70
2022/12/08 08:07:00;;;;;;;24.77;14.80;;;3.00;99.90;;;;;;5015452;28;20540;-69
2022/12/08 08:09:28;;;;;;;23.70;14.10;;;3.00;99.90;;;;;;5015218;28;20481;-68
2022/12/08 08:11:58;;;;;;;22.00;14.67;;;3.10;99.90;;;;;;5015294;28;20518;-70
2022/12/08 08:14:24;;;;;;;19.07;12.83;;;3.10;99.90;;;;;;5015346;28;20527;-69
2022/12/08 08:16:51;;;;;;;23.70;13.10;;;3.10;99.90;;;;;;5015556;28;20493;-68
2022/12/08 08:19:18;;;;;;;27.27;14.03;;;3.10;99.90;;;;;;5015380;28;20543;-68
2022/12/08 08:21:45;;;;;;;22.20;13.30;;;3.10;99.90;;;;;;5015402;28;20465;-69
2022/12/08 08:24:12;;;;;;;22.40;13.83;;;3.20;99.90;;;;;;5015398;28;20532;-69
2022/12/08 08:26:40;;;;;;;24.30;14.03;;;3.20;99.90;;;;;;5015718;28;20457;-68
2022/12/08 08:29:07;;;;;;;18.47;12.37;;;3.20;99.90;;;;;;5018627;28;20467;-69
2022/12/08 08:31:34;;;;;;;18.23;12.80;;;3.20;99.90;;;;;;5018514;28;20453;-68
2022/12/08 08:34:05;;;;;;;20.80;12.13;;;3.10;99.90;;;;;;5018570;28;20548;-70
2022/12/08 08:36:31;;;;;;;18.10;13.17;;;3.10;99.90;;;;;;5018080;28;20437;-69
2022/12/08 08:38:58;;;;;;;20.40;11.87;;;3.10;99.90;;;;;;5018233;28;21009;-67
2022/12/08 08:41:25;;;;;;;25.30;13.27;;;3.10;99.90;;;;;;5018689;28;20792;-68
2022/12/08 08:43:54;;;;;;;20.57;12.63;;;3.10;99.90;;;;;;5018565;28;20453;-69
2022/12/08 08:46:21;;;;;;;18.40;11.40;;;3.10;99.90;;;;;;5018119;28;20480;-69
2022/12/08 08:48:48;;;;;;;20.83;12.27;;;3.10;99.90;;;;;;5018396;28;20543;-69
2022/12/08 08:51:15;;;;;;;21.70;12.63;;;3.10;99.90;;;;;;5018422;28;20480;-70
2022/12/08 08:53:42;;;;;;;19.47;12.63;;;3.20;99.90;;;;;;5018996;28;20556;-68
2022/12/08 08:56:11;;;;;;;19.40;12.43;;;3.20;99.90;;;;;;5018193;28;20920;-69
2022/12/08 08:58:38;;;;;;;24.43;12.40;;;3.20;99.90;;;;;;5018446;28;20547;-68
2022/12/08 09:01:06;;;;;;;18.77;13.00;;;3.30;99.90;;;;;;5018378;28;20453;-68
2022/12/08 09:03:33;;;;;;;21.77;13.37;;;3.30;99.90;;;;;;5018690;28;20869;-68
2022/12/08 09:06:00;;;;;;;19.43;12.60;;;3.30;99.90;;;;;;5022290;28;20524;-68
2022/12/08 09:08:27;;;;;;;17.50;11.57;;;3.40;99.90;;;;;;5021337;28;20462;-68
2022/12/08 09:10:54;;;;;;;25.00;11.47;;;3.40;99.90;;;;;;5021985;28;20574;-68
2022/12/08 09:13:22;;;;;;;18.20;12.57;;;3.40;99.90;;;;;;5019460;28;20552;-67
2022/12/08 09:15:49;;;;;;;19.57;12.57;;;3.50;99.90;;;;;;5018417;28;20506;-67
2022/12/08 09:18:18;;;;;;;17.60;11.67;;;3.50;99.90;;;;;;5017879;28;20463;-68
2022/12/08 09:20:45;;;;;;;20.57;11.43;;;3.50;99.90;;;;;;5017829;28;20544;-67
2022/12/08 09:23:12;;;;;;;16.60;11.10;;;3.50;99.90;;;;;;5018818;28;20503;-68
2022/12/08 09:25:39;;;;;;;16.00;11.03;;;3.50;99.90;;;;;;5018142;28;20461;-68
2022/12/08 09:28:06;;;;;;;20.57;11.77;;;3.50;99.90;;;;;;5018111;28;20472;-68
2022/12/08 09:30:33;;;;;;;18.80;11.37;;;3.60;99.90;;;;;;5017597;28;20507;-67
2022/12/08 09:33:00;;;;;;;19.87;12.17;;;3.50;99.90;;;;;;5018334;28;20535;-68
2022/12/08 09:35:28;;;;;;;19.30;12.40;;;3.60;99.90;;;;;;5018617;28;20500;-69
2022/12/08 09:37:55;;;;;;;16.30;10.67;;;3.50;99.90;;;;;;5017064;28;20647;-68
2022/12/08 09:40:25;;;;;;;16.23;11.63;;;3.50;99.90;;;;;;5017541;28;20453;-68
2022/12/08 09:42:56;;;;;;;18.67;12.17;;;3.60;99.90;;;;;;5017666;28;20528;-68
2022/12/08 09:45:26;;;;;;;20.53;12.97;;;3.60;99.90;;;;;;5017935;28;20833;-68
2022/12/08 09:48:07;;;;;;;20.40;12.90;;;3.60;99.90;;;;;;5017228;28;20446;-67
2022/12/08 09:50:39;;;;;;;19.23;12.03;;;3.60;99.90;;;;;;5017131;28;20496;-68
2022/12/08 09:53:12;;;;;;;20.20;11.93;;;3.60;99.90;;;;;;5017419;28;20445;-69
2022/12/08 09:55:42;;;;;;;22.07;12.97;;;3.60;99.90;;;;;;5017886;28;20456;-67
2022/12/08 09:58:19;;;;;;;16.63;11.97;;;3.60;99.90;;;;;;5017247;28;20555;-68
2022/12/08 10:00:46;;;;;;;20.53;12.37;;;3.60;99.90;;;;;;5017035;28;20541;-68
2022/12/08 10:03:13;;;;;;;17.47;11.97;;;3.60;99.90;;;;;;5016992;28;20457;-68
2022/12/08 10:05:48;;;;;;;14.33;10.37;;;3.60;99.90;;;;;;5017195;28;20556;-67
2022/12/08 10:08:20;;;;;;;17.73;11.40;;;3.70;99.90;;;;;;5017057;28;20441;-67
2022/12/08 10:10:52;;;;;;;17.87;12.97;;;3.70;99.90;;;;;;5017371;28;20874;-68
2022/12/08 10:13:25;;;;;;;15.27;10.27;;;3.70;99.90;;;;;;5017384;28;20456;-68
2022/12/08 10:16:02;;;;;;;18.57;11.90;;;3.70;99.90;;;;;;5017141;28;20457;-68
2022/12/08 10:18:31;;;;;;;18.53;11.67;;;3.70;99.90;;;;;;5016959;28;20528;-67
2022/12/08 10:21:12;;;;;;;15.93;11.90;;;3.70;99.90;;;;;;5016924;28;20825;-68
2022/12/08 10:23:41;;;;;;;19.93;11.40;;;3.70;99.90;;;;;;5017715;28;20520;-69
2022/12/08 10:26:13;;;;;;;17.60;12.37;;;3.60;99.90;;;;;;5016907;28;20536;-68
2022/12/08 10:28:40;;;;;;;17.60;10.93;;;3.70;99.90;;;;;;5017046;28;20441;-68
2022/12/08 10:31:11;;;;;;;17.93;11.40;;;3.70;99.90;;;;;;5017369;28;20481;-69
2022/12/08 10:33:38;;;;;;;20.37;13.70;;;3.70;99.90;;;;;;5016916;28;20455;-68
2022/12/08 10:36:07;;;;;;;16.87;12.03;;;3.70;99.90;;;;;;5016843;28;20544;-67
2022/12/08 10:38:35;;;;;;;19.27;11.47;;;3.70;99.90;;;;;;5016478;28;20503;-68
2022/12/08 10:41:06;;;;;;;18.67;12.67;;;3.80;99.90;;;;;;5016189;28;20558;-67
2022/12/08 10:43:34;;;;;;;21.20;12.30;;;3.80;99.90;;;;;;5016466;28;20503;-68
2022/12/08 10:46:15;;;;;;;24.00;12.33;;;3.80;99.90;;;;;;5015715;28;20567;-67
2022/12/08 10:48:51;;;;;;;16.87;11.37;;;3.80;99.90;;;;;;5017798;28;20507;-68
2022/12/08 10:51:29;;;;;;;18.20;11.60;;;3.80;99.90;;;;;;5017869;28;20540;-69
2022/12/08 10:53:56;;;;;;;15.37;11.10;;;3.90;99.90;;;;;;5017933;28;20528;-69
2022/12/08 10:56:27;;;;;;;24.40;12.60;;;3.80;99.90;;;;;;5016846;28;20457;-67
2022/12/08 10:59:13;;;;;;;15.67;10.50;;;3.80;99.90;;;;;;5016521;28;20489;-66
2022/12/08 11:01:42;;;;;;;18.27;10.67;;;3.80;99.90;;;;;;5016051;28;20912;-68
2022/12/08 11:04:15;;;;;;;13.10;10.97;;;3.80;99.90;;;;;;5016290;28;20462;-67
2022/12/08 11:06:43;;;;;;;17.30;11.27;;;3.90;99.90;;;;;;5016583;28;20456;-67
2022/12/08 11:09:26;;;;;;;23.07;12.10;;;3.90;99.90;;;;;;5015815;28;20957;-68
2022/12/08 11:11:55;;;;;;;17.90;11.20;;;3.90;99.90;;;;;;5016162;28;20768;-67
2022/12/08 11:14:25;;;;;;;17.23;11.23;;;3.90;99.90;;;;;;5015904;28;20519;-68
2022/12/08 11:16:54;;;;;;;16.77;10.60;;;3.90;99.90;;;;;;5016094;28;20524;-68
2022/12/08 11:19:25;;;;;;;20.40;11.80;;;3.80;99.90;;;;;;5015762;28;20493;-68
2022/12/08 11:21:54;;;;;;;21.57;10.47;;;3.80;99.90;;;;;;5015634;28;20839;-67
2022/12/08 11:24:24;;;;;;;17.80;9.30;;;3.80;99.90;;;;;;5015622;28;20496;-67
2022/12/08 11:26:54;;;;;;;12.93;8.90;;;3.70;99.90;;;;;;5015983;28;20465;-68
2022/12/08 11:29:22;;;;;;;16.50;10.20;;;3.60;99.90;;;;;;5015851;28;20487;-67
2022/12/08 11:31:54;;;;;;;12.47;8.77;;;3.50;99.90;;;;;;5017206;28;21079;-68
2022/12/08 11:34:30;;;;;;;13.83;8.70;;;3.50;99.90;;;;;;5020013;28;20445;-68
2022/12/08 11:36:59;;;;;;;11.67;9.40;;;3.50;99.90;;;;;;5019556;28;20528;-67
2022/12/08 11:39:29;;;;;;;13.37;10.07;;;3.40;99.90;;;;;;5019192;28;20489;-68
2022/12/08 11:41:57;;;;;;;16.73;10.80;;;3.40;99.90;;;;;;5016936;28;20453;-67
2022/12/08 11:44:33;;;;;;;15.80;11.43;;;3.40;99.90;;;;;;5015212;28;20496;-68
2022/12/08 11:47:06;;;;;;;17.33;11.10;;;3.40;99.90;;;;;;5015057;28;20575;-68
2022/12/08 11:49:36;;;;;;;16.23;9.80;;;3.30;99.90;;;;;;5015338;28;20488;-68
2022/12/08 11:52:12;;;;;;;15.23;10.30;;;3.30;99.90;;;;;;5015152;28;20586;-67
2022/12/08 11:54:46;;;;;;;15.00;10.50;;;3.30;99.90;;;;;;5014843;28;20539;-67
2022/12/08 11:57:15;;;;;;;16.97;10.87;;;3.30;99.90;;;;;;5014862;28;20527;-66
2022/12/08 11:59:45;;;;;;;15.00;10.57;;;3.40;99.90;;;;;;5014807;28;20456;-66
2022/12/08 12:02:15;;;;;;;15.93;11.07;;;3.40;99.90;;;;;;5014426;28;20766;-66
2022/12/08 12:04:46;;;;;;;15.10;11.27;;;3.40;99.90;;;;;;5014920;28;20874;-67
2022/12/08 12:07:48;;;;;;;19.30;12.10;;;3.40;99.90;;;;;;5014673;28;20507;-67
2022/12/08 12:10:35;;;;;;;17.60;12.30;;;3.40;99.90;;;;;;5014928;28;20488;-67
2022/12/08 12:13:12;;;;;;;20.07;12.23;;;3.50;99.90;;;;;;5015280;28;20612;-67
2022/12/08 12:16:21;;;;;;;15.63;11.00;;;3.50;99.90;;;;;;5024257;28;20535;-68
2022/12/08 12:18:54;;;;;;;15.73;10.40;;;3.60;99.90;;;;;;5029656;28;20539;-68
2022/12/08 12:21:26;;;;;;;20.13;11.80;;;3.60;99.90;;;;;;5034667;28;20443;-67
2022/12/08 12:23:57;;;;;;;18.27;12.40;;;3.60;99.90;;;;;;5034646;28;20436;-67
2022/12/08 12:26:26;;;;;;;15.77;10.97;;;3.60;99.90;;;;;;5034667;28;20441;-68
2022/12/08 12:28:57;;;;;;;18.90;10.47;;;3.70;99.90;;;;;;5034824;28;20452;-67
2022/12/08 12:31:26;;;;;;;17.40;11.20;;;3.70;99.90;;;;;;5034299;28;20558;-67
2022/12/08 12:34:03;;;;;;;19.60;12.07;;;3.70;99.90;;;;;;5034654;28;20550;-67
2022/12/08 12:36:31;;;;;;;17.03;11.13;;;3.70;99.90;;;;;;5034713;28;20871;-66
2022/12/08 12:39:01;;;;;;;18.63;12.40;;;3.70;99.90;;;;;;5034231;28;20456;-66
2022/12/08 12:41:35;;;;;;;15.70;10.07;;;3.70;99.90;;;;;;5034345;28;20494;-67
2022/12/08 12:44:37;;;;;;;22.13;10.60;;;3.70;99.90;;;;;;5035084;28;20440;-66
2022/12/08 12:47:07;;;;;;;18.07;10.90;;;3.70;99.90;;;;;;5022063;28;20566;-66
2022/12/08 12:50:13;;;;;;;17.73;10.73;;;3.70;99.90;;;;;;5035944;28;20436;-68
2022/12/08 12:52:47;;;;;;;14.13;9.47;;;3.70;99.90;;;;;;5036690;28;20454;-67
2022/12/08 12:55:48;;;;;;;14.10;9.43;;;3.70;99.90;;;;;;5037416;28;20452;-67
2022/12/08 12:58:41;;;;;;;13.90;10.47;;;3.70;99.90;;;;;;5037037;28;20535;-67